sensor_id;sensor_type;location;lat;lon;timestamp;pressure;altitude;pressure_sealevel;temperature;humidity
16580;BME280;8402;51.466;6.806;2023-08-31T00:02:18;100529.91;;;15.34;93.70
16580;BME280;8402;51.466;6.806;2023-08-31T00:04:51;100537.22;;;15.30;93.39
16580;BME280;8402;51.466;6.806;2023-08-31T00:07:21;100544.09;;;15.24;93.08
16580;BME280;8402;51.466;6.806;2023-08-31T00:09:51;100542.50;;;15.23;93.63
16580;BME280;8402;51.466;6.806;2023-08-31T00:12:24;100542.03;;;15.21;93.63
16580;BME280;8402;51.466;6.806;2023-08-31T00:14:55;100534.56;;;15.18;93.41
16580;BME280;8402;51.466;6.806;2023-08-31T00:17:25;100534.56;;;15.18;93.55
16580;BME280;8402;51.466;6.806;2023-08-31T00:19:55;100532.84;;;15.13;93.88
16580;BME280;8402;51.466;6.806;2023-08-31T00:22:25;100537.53;;;15.12;94.01
16580;BME280;8402;51.466;6.806;2023-08-31T00:24:55;100539.38;;;15.08;94.06
16580;BME280;8402;51.466;6.806;2023-08-31T00:27:28;100538.94;;;15.06;93.98
16580;BME280;8402;51.466;6.806;2023-08-31T00:29:57;100544.66;;;15.01;93.97
16580;BME280;8402;51.466;6.806;2023-08-31T00:32:29;100541.47;;;14.99;94.34
16580;BME280;8402;51.466;6.806;2023-08-31T00:35:00;100537.59;;;15.00;94.76
16580;BME280;8402;51.466;6.806;2023-08-31T00:37:30;100531.69;;;14.98;94.61
16580;BME280;8402;51.466;6.806;2023-08-31T00:40:01;100537.13;;;14.98;94.41
16580;BME280;8402;51.466;6.806;2023-08-31T00:42:34;100536.59;;;14.93;94.47
16580;BME280;8402;51.466;6.806;2023-08-31T00:45:05;100542.69;;;14.86;94.79
16580;BME280;8402;51.466;6.806;2023-08-31T00:47:35;100540.75;;;14.86;94.89
16580;BME280;8402;51.466;6.806;2023-08-31T00:50:07;100541.53;;;14.87;94.89
16580;BME280;8402;51.466;6.806;2023-08-31T00:52:37;100541.53;;;14.87;94.95
16580;BME280;8402;51.466;6.806;2023-08-31T00:55:08;100543.13;;;14.88;94.50
16580;BME280;8402;51.466;6.806;2023-08-31T00:57:41;100544.16;;;14.83;94.51
16580;BME280;8402;51.466;6.806;2023-08-31T01:00:09;100541.34;;;14.80;94.70
16580;BME280;8402;51.466;6.806;2023-08-31T01:02:50;100546.69;;;14.76;94.34
16580;BME280;8402;51.466;6.806;2023-08-31T01:05:31;100542.72;;;14.74;94.40
16580;BME280;8402;51.466;6.806;2023-08-31T01:08:10;100539.97;;;14.74;94.98
16580;BME280;8402;51.466;6.806;2023-08-31T01:10:56;100538.84;;;14.75;95.00
16580;BME280;8402;51.466;6.806;2023-08-31T01:13:32;100539.28;;;14.77;95.03
16580;BME280;8402;51.466;6.806;2023-08-31T01:16:07;100540.06;;;14.77;95.09
16580;BME280;8402;51.466;6.806;2023-08-31T01:18:39;100536.53;;;14.77;94.78
16580;BME280;8402;51.466;6.806;2023-08-31T01:21:15;100541.13;;;14.73;94.32
16580;BME280;8402;51.466;6.806;2023-08-31T01:23:53;100545.31;;;14.70;94.67
16580;BME280;8402;51.466;6.806;2023-08-31T01:26:25;100536.34;;;14.70;94.31
16580;BME280;8402;51.466;6.806;2023-08-31T01:28:55;100534.09;;;14.72;94.58
16580;BME280;8402;51.466;6.806;2023-08-31T01:31:27;100538.72;;;14.71;94.89
16580;BME280;8402;51.466;6.806;2023-08-31T01:33:57;100541.00;;;14.69;94.83
16580;BME280;8402;51.466;6.806;2023-08-31T01:36:29;100533.16;;;14.68;94.44
16580;BME280;8402;51.466;6.806;2023-08-31T01:39:07;100547.25;;;14.70;94.23
16580;BME280;8402;51.466;6.806;2023-08-31T01:41:43;100549.06;;;14.78;94.44
16580;BME280;8402;51.466;6.806;2023-08-31T01:44:15;100544.28;;;14.75;93.78
16580;BME280;8402;51.466;6.806;2023-08-31T01:46:46;100562.97;;;14.73;93.62
16580;BME280;8402;51.466;6.806;2023-08-31T01:49:16;100557.84;;;14.71;93.69
16580;BME280;8402;51.466;6.806;2023-08-31T01:51:46;100560.72;;;14.63;93.27
16580;BME280;8402;51.466;6.806;2023-08-31T01:54:18;100555.41;;;14.54;93.62
16580;BME280;8402;51.466;6.806;2023-08-31T01:56:48;100551.88;;;14.53;93.93
16580;BME280;8402;51.466;6.806;2023-08-31T01:59:18;100563.50;;;14.50;93.78
16580;BME280;8402;51.466;6.806;2023-08-31T02:01:48;100562.91;;;14.45;93.88
16580;BME280;8402;51.466;6.806;2023-08-31T02:04:18;100565.75;;;14.36;94.53
16580;BME280;8402;51.466;6.806;2023-08-31T02:06:48;100563.69;;;14.33;94.41
16580;BME280;8402;51.466;6.806;2023-08-31T02:09:20;100565.63;;;14.32;94.87
16580;BME280;8402;51.466;6.806;2023-08-31T02:11:50;100567.13;;;14.30;94.73
16580;BME280;8402;51.466;6.806;2023-08-31T02:14:20;100567.91;;;14.30;94.72
16580;BME280;8402;51.466;6.806;2023-08-31T02:16:50;100573.25;;;14.27;94.97
16580;BME280;8402;51.466;6.806;2023-08-31T02:19:20;100563.03;;;14.24;94.95
16580;BME280;8402;51.466;6.806;2023-08-31T02:21:50;100564.97;;;14.23;95.30
16580;BME280;8402;51.466;6.806;2023-08-31T02:24:23;100568.03;;;14.22;95.41
16580;BME280;8402;51.466;6.806;2023-08-31T02:26:53;100575.41;;;14.21;95.38
16580;BME280;8402;51.466;6.806;2023-08-31T02:29:23;100565.09;;;14.15;95.45
16580;BME280;8402;51.466;6.806;2023-08-31T02:31:53;100571.66;;;14.14;95.70
16580;BME280;8402;51.466;6.806;2023-08-31T02:34:23;100565.09;;;14.15;95.95
16580;BME280;8402;51.466;6.806;2023-08-31T02:36:52;100561.91;;;14.13;95.85
16580;BME280;8402;51.466;6.806;2023-08-31T02:39:25;100563.03;;;14.12;96.01
16580;BME280;8402;51.466;6.806;2023-08-31T02:41:55;100564.97;;;14.11;96.01
16580;BME280;8402;51.466;6.806;2023-08-31T02:44:25;100567.25;;;14.09;95.95
16580;BME280;8402;51.466;6.806;2023-08-31T02:46:55;100567.59;;;14.08;96.02
16580;BME280;8402;51.466;6.806;2023-08-31T02:49:25;100567.59;;;14.08;96.41
16580;BME280;8402;51.466;6.806;2023-08-31T02:51:55;100564.88;;;14.08;96.59
16580;BME280;8402;51.466;6.806;2023-08-31T02:54:27;100573.50;;;14.10;96.80
16580;BME280;8402;51.466;6.806;2023-08-31T02:56:57;100574.28;;;14.10;96.53
16580;BME280;8402;51.466;6.806;2023-08-31T02:59:28;100572.81;;;14.13;96.28
16580;BME280;8402;51.466;6.806;2023-08-31T03:02:02;100576.81;;;14.15;96.36
16580;BME280;8402;51.466;6.806;2023-08-31T03:04:32;100566.78;;;14.07;96.66
16580;BME280;8402;51.466;6.806;2023-08-31T03:07:03;100569.41;;;14.03;96.96
16580;BME280;8402;51.466;6.806;2023-08-31T03:09:36;100565.53;;;14.04;96.93
16580;BME280;8402;51.466;6.806;2023-08-31T03:12:06;100575.78;;;14.08;96.79
16580;BME280;8402;51.466;6.806;2023-08-31T03:14:36;100564.75;;;14.04;96.93
16580;BME280;8402;51.466;6.806;2023-08-31T03:17:07;100566.34;;;14.05;96.81
16580;BME280;8402;51.466;6.806;2023-08-31T03:19:37;100561.56;;;14.02;96.88
16580;BME280;8402;51.466;6.806;2023-08-31T03:22:07;100572.34;;;13.98;97.24
16580;BME280;8402;51.466;6.806;2023-08-31T03:24:39;100581.69;;;13.97;97.54
16580;BME280;8402;51.466;6.806;2023-08-31T03:27:09;100571.91;;;13.96;97.65
16580;BME280;8402;51.466;6.806;2023-08-31T03:29:39;100575.31;;;13.93;97.89
16580;BME280;8402;51.466;6.806;2023-08-31T03:32:09;100573.72;;;13.92;98.43
16580;BME280;8402;51.466;6.806;2023-08-31T03:34:39;100572.59;;;13.93;98.54
16580;BME280;8402;51.466;6.806;2023-08-31T03:37:08;100572.34;;;13.98;98.43
16580;BME280;8402;51.466;6.806;2023-08-31T03:39:41;100570.75;;;13.97;98.29
16580;BME280;8402;51.466;6.806;2023-08-31T03:42:11;100563.81;;;14.00;98.10
16580;BME280;8402;51.466;6.806;2023-08-31T03:44:41;100565.31;;;13.97;97.74
16580;BME280;8402;51.466;6.806;2023-08-31T03:47:11;100568.47;;;13.99;97.95
16580;BME280;8402;51.466;6.806;2023-08-31T03:49:41;100566.22;;;14.01;98.20
16580;BME280;8402;51.466;6.806;2023-08-31T03:52:11;100563.25;;;14.07;98.21
16580;BME280;8402;51.466;6.806;2023-08-31T03:54:43;100559.41;;;14.08;98.34
16580;BME280;8402;51.466;6.806;2023-08-31T03:57:13;100552.59;;;14.01;98.69
16580;BME280;8402;51.466;6.806;2023-08-31T03:59:43;100573.28;;;14.02;98.60
16580;BME280;8402;51.466;6.806;2023-08-31T04:02:13;100564.66;;;14.00;98.52
16580;BME280;8402;51.466;6.806;2023-08-31T04:04:43;100569.41;;;14.03;98.40
16580;BME280;8402;51.466;6.806;2023-08-31T04:07:13;100576.66;;;13.99;98.53
16580;BME280;8402;51.466;6.806;2023-08-31T04:09:45;100576.91;;;13.94;98.34
16580;BME280;8402;51.466;6.806;2023-08-31T04:12:15;100584.63;;;13.92;98.50
16580;BME280;8402;51.466;6.806;2023-08-31T04:14:45;100579.97;;;13.93;98.57
16580;BME280;8402;51.466;6.806;2023-08-31T04:17:16;100578.50;;;13.95;98.78
16580;BME280;8402;51.466;6.806;2023-08-31T04:19:46;100590.78;;;13.89;98.47
16580;BME280;8402;51.466;6.806;2023-08-31T04:22:16;100582.00;;;13.84;99.25
16580;BME280;8402;51.466;6.806;2023-08-31T04:24:48;100576.44;;;13.80;99.16
16580;BME280;8402;51.466;6.806;2023-08-31T04:27:18;100584.16;;;13.78;99.36
16580;BME280;8402;51.466;6.806;2023-08-31T04:29:49;100575.19;;;13.77;99.73
16580;BME280;8402;51.466;6.806;2023-08-31T04:32:18;100588.81;;;13.77;99.56
16580;BME280;8402;51.466;6.806;2023-08-31T04:34:49;100583.34;;;13.77;99.70
16580;BME280;8402;51.466;6.806;2023-08-31T04:37:21;100589.59;;;13.78;99.43
16580;BME280;8402;51.466;6.806;2023-08-31T04:39:54;100595.75;;;13.75;100.00
16580;BME280;8402;51.466;6.806;2023-08-31T04:42:24;100595.31;;;13.73;99.84
16580;BME280;8402;51.466;6.806;2023-08-31T04:44:54;100599.03;;;13.68;99.60
16580;BME280;8402;51.466;6.806;2023-08-31T04:47:25;100598.22;;;13.68;99.94
16580;BME280;8402;51.466;6.806;2023-08-31T04:49:58;100601.66;;;13.65;99.98
16580;BME280;8402;51.466;6.806;2023-08-31T04:52:28;100598.44;;;13.63;99.97
16580;BME280;8402;51.466;6.806;2023-08-31T04:55:01;100604.59;;;13.60;100.00
16580;BME280;8402;51.466;6.806;2023-08-31T04:57:32;100610.50;;;13.62;100.00
16580;BME280;8402;51.466;6.806;2023-08-31T05:00:02;100616.38;;;13.64;100.00
16580;BME280;8402;51.466;6.806;2023-08-31T05:02:34;100611.72;;;13.64;100.00
16580;BME280;8402;51.466;6.806;2023-08-31T05:05:05;100625.06;;;13.66;100.00
16580;BME280;8402;51.466;6.806;2023-08-31T05:07:35;100626.97;;;13.65;100.00
16580;BME280;8402;51.466;6.806;2023-08-31T05:10:09;100622.53;;;13.61;100.00
16580;BME280;8402;51.466;6.806;2023-08-31T05:12:39;100627.97;;;13.61;100.00
16580;BME280;8402;51.466;6.806;2023-08-31T05:15:09;100636.16;;;13.61;100.00
16580;BME280;8402;51.466;6.806;2023-08-31T05:17:39;100633.88;;;13.63;100.00
16580;BME280;8402;51.466;6.806;2023-08-31T05:20:10;100642.22;;;13.66;100.00
16580;BME280;8402;51.466;6.806;2023-08-31T05:22:40;100641.06;;;13.67;100.00
16580;BME280;8402;51.466;6.806;2023-08-31T05:25:13;100629.56;;;13.62;100.00
16580;BME280;8402;51.466;6.806;2023-08-31T05:27:43;100640.47;;;13.62;100.00
16580;BME280;8402;51.466;6.806;2023-08-31T05:30:13;100637.41;;;13.63;100.00
16580;BME280;8402;51.466;6.806;2023-08-31T05:32:43;100649.91;;;13.64;100.00
16580;BME280;8402;51.466;6.806;2023-08-31T05:35:13;100642.56;;;13.65;100.00
16580;BME280;8402;51.466;6.806;2023-08-31T05:37:42;100646.19;;;13.69;100.00
16580;BME280;8402;51.466;6.806;2023-08-31T05:40:16;100658.03;;;13.73;100.00
16580;BME280;8402;51.466;6.806;2023-08-31T05:42:46;100642.44;;;13.73;100.00
16580;BME280;8402;51.466;6.806;2023-08-31T05:45:16;100650.28;;;13.75;100.00
16580;BME280;8402;51.466;6.806;2023-08-31T05:47:45;100652.66;;;13.76;100.00
16580;BME280;8402;51.466;6.806;2023-08-31T05:50:16;100649.59;;;13.78;100.00
16580;BME280;8402;51.466;6.806;2023-08-31T05:52:45;100648.94;;;13.81;100.00
16580;BME280;8402;51.466;6.806;2023-08-31T05:55:18;100658.50;;;13.87;100.00
16580;BME280;8402;51.466;6.806;2023-08-31T05:57:48;100654.09;;;13.95;100.00
16580;BME280;8402;51.466;6.806;2023-08-31T06:00:19;100656.25;;;14.01;100.00
16580;BME280;8402;51.466;6.806;2023-08-31T06:02:48;100652.84;;;14.04;100.00
16580;BME280;8402;51.466;6.806;2023-08-31T06:05:18;100660.38;;;14.08;100.00
16580;BME280;8402;51.466;6.806;2023-08-31T06:07:48;100656.16;;;14.10;100.00
16580;BME280;8402;51.466;6.806;2023-08-31T06:10:22;100668.78;;;14.15;100.00
16580;BME280;8402;51.466;6.806;2023-08-31T06:12:51;100668.09;;;14.18;100.00
16580;BME280;8402;51.466;6.806;2023-08-31T06:15:21;100671.28;;;14.20;100.00
16580;BME280;8402;51.466;6.806;2023-08-31T06:17:51;100679.94;;;14.22;100.00
16580;BME280;8402;51.466;6.806;2023-08-31T06:20:23;100679.94;;;14.22;100.00
16580;BME280;8402;51.466;6.806;2023-08-31T06:22:53;100684.47;;;14.18;100.00
16580;BME280;8402;51.466;6.806;2023-08-31T06:25:26;100686.28;;;14.26;100.00
16580;BME280;8402;51.466;6.806;2023-08-31T06:27:55;100685.63;;;14.29;100.00
16580;BME280;8402;51.466;6.806;2023-08-31T06:30:25;100690.72;;;14.43;100.00
16580;BME280;8402;51.466;6.806;2023-08-31T06:32:55;100693.63;;;14.58;100.00
16580;BME280;8402;51.466;6.806;2023-08-31T06:35:25;100688.91;;;14.83;100.00
16580;BME280;8402;51.466;6.806;2023-08-31T06:37:55;100697.91;;;14.96;100.00
16580;BME280;8402;51.466;6.806;2023-08-31T06:40:28;100692.44;;;14.96;100.00
16580;BME280;8402;51.466;6.806;2023-08-31T06:42:58;100695.31;;;14.88;100.00
16580;BME280;8402;51.466;6.806;2023-08-31T06:45:27;100692.22;;;14.89;100.00
16580;BME280;8402;51.466;6.806;2023-08-31T06:47:57;100697.63;;;15.13;100.00
16580;BME280;8402;51.466;6.806;2023-08-31T06:50:27;100683.34;;;15.32;100.00
16580;BME280;8402;51.466;6.806;2023-08-31T06:52:57;100692.94;;;15.54;100.00
16580;BME280;8402;51.466;6.806;2023-08-31T06:55:30;100686.50;;;15.75;99.84
16580;BME280;8402;51.466;6.806;2023-08-31T06:58:01;100690.22;;;15.98;99.34
16580;BME280;8402;51.466;6.806;2023-08-31T07:00:31;100689.19;;;16.18;98.31
16580;BME280;8402;51.466;6.806;2023-08-31T07:03:02;100691.03;;;16.46;98.20
16580;BME280;8402;51.466;6.806;2023-08-31T07:05:34;100692.00;;;16.69;96.72
16580;BME280;8402;51.466;6.806;2023-08-31T07:08:05;100691.63;;;16.87;95.53
16580;BME280;8402;51.466;6.806;2023-08-31T07:10:37;100695.25;;;16.91;92.90
16580;BME280;8402;51.466;6.806;2023-08-31T07:13:07;100694.28;;;17.18;94.20
16580;BME280;8402;51.466;6.806;2023-08-31T07:15:38;100690.81;;;17.41;93.59
16580;BME280;8402;51.466;6.806;2023-08-31T07:18:08;100696.59;;;17.55;93.31
16580;BME280;8402;51.466;6.806;2023-08-31T07:20:38;100700.75;;;17.68;92.16
16580;BME280;8402;51.466;6.806;2023-08-31T07:23:08;100698.44;;;17.70;91.50
16580;BME280;8402;51.466;6.806;2023-08-31T07:25:41;100701.78;;;17.60;90.31
16580;BME280;8402;51.466;6.806;2023-08-31T07:28:11;100701.22;;;17.51;90.95
16580;BME280;8402;51.466;6.806;2023-08-31T07:30:41;100709.00;;;17.49;90.89
16580;BME280;8402;51.466;6.806;2023-08-31T07:33:11;100706.56;;;17.44;90.67
16580;BME280;8402;51.466;6.806;2023-08-31T07:35:56;100711.16;;;17.40;90.97
16580;BME280;8402;51.466;6.806;2023-08-31T07:38:27;100704.91;;;17.58;90.39
16580;BME280;8402;51.466;6.806;2023-08-31T07:41:00;100706.00;;;17.73;90.44
16580;BME280;8402;51.466;6.806;2023-08-31T07:43:31;100708.00;;;17.76;89.84
16580;BME280;8402;51.466;6.806;2023-08-31T07:46:01;100715.13;;;18.00;88.30
16580;BME280;8402;51.466;6.806;2023-08-31T07:48:31;100722.50;;;18.19;87.90
16580;BME280;8402;51.466;6.806;2023-08-31T07:51:01;100712.19;;;18.35;88.63
16580;BME280;8402;51.466;6.806;2023-08-31T07:53:34;100722.34;;;18.31;84.54
16580;BME280;8402;51.466;6.806;2023-08-31T07:56:06;100718.69;;;18.50;85.72
16580;BME280;8402;51.466;6.806;2023-08-31T07:58:36;100721.22;;;18.59;86.15
16580;BME280;8402;51.466;6.806;2023-08-31T08:01:06;100720.09;;;18.86;86.08
16580;BME280;8402;51.466;6.806;2023-08-31T08:03:36;100721.50;;;19.03;84.27
16580;BME280;8402;51.466;6.806;2023-08-31T08:06:06;100724.47;;;19.21;83.24
16580;BME280;8402;51.466;6.806;2023-08-31T08:08:36;100724.66;;;19.35;82.78
16580;BME280;8402;51.466;6.806;2023-08-31T08:11:09;100723.34;;;19.56;82.49
16580;BME280;8402;51.466;6.806;2023-08-31T08:13:39;100724.38;;;19.74;82.69
16580;BME280;8402;51.466;6.806;2023-08-31T08:16:09;100728.94;;;19.96;83.28
16580;BME280;8402;51.466;6.806;2023-08-31T08:18:39;100731.91;;;20.18;81.70
16580;BME280;8402;51.466;6.806;2023-08-31T08:21:09;100726.59;;;20.39;81.23
16580;BME280;8402;51.466;6.806;2023-08-31T08:23:40;100740.13;;;20.55;79.76
16580;BME280;8402;51.466;6.806;2023-08-31T08:26:13;100735.84;;;20.61;78.65
16580;BME280;8402;51.466;6.806;2023-08-31T08:28:43;100738.75;;;20.79;79.81
16580;BME280;8402;51.466;6.806;2023-08-31T08:31:13;100746.75;;;20.95;78.40
16580;BME280;8402;51.466;6.806;2023-08-31T08:33:43;100747.16;;;21.00;77.30
16580;BME280;8402;51.466;6.806;2023-08-31T08:36:13;100747.63;;;21.09;76.58
16580;BME280;8402;51.466;6.806;2023-08-31T08:38:43;100739.75;;;21.11;75.29
16580;BME280;8402;51.466;6.806;2023-08-31T08:41:16;100742.94;;;21.17;75.51
16580;BME280;8402;51.466;6.806;2023-08-31T08:43:51;100746.97;;;21.34;75.49
16580;BME280;8402;51.466;6.806;2023-08-31T08:46:22;100744.69;;;21.50;76.26
16580;BME280;8402;51.466;6.806;2023-08-31T08:48:53;100744.41;;;21.80;76.57
16580;BME280;8402;51.466;6.806;2023-08-31T08:51:23;100736.94;;;21.91;74.60
16580;BME280;8402;51.466;6.806;2023-08-31T08:53:54;100734.59;;;22.01;74.15
16580;BME280;8402;51.466;6.806;2023-08-31T08:56:27;100749.66;;;22.17;75.06
16580;BME280;8402;51.466;6.806;2023-08-31T08:58:57;100740.97;;;22.33;73.58
16580;BME280;8402;51.466;6.806;2023-08-31T09:01:27;100743.75;;;22.51;73.29
16580;BME280;8402;51.466;6.806;2023-08-31T09:03:57;100753.63;;;22.70;72.58
16580;BME280;8402;51.466;6.806;2023-08-31T09:06:27;100752.03;;;22.62;70.20
16580;BME280;8402;51.466;6.806;2023-08-31T09:08:57;100755.22;;;22.53;69.20
16580;BME280;8402;51.466;6.806;2023-08-31T09:11:30;100761.13;;;22.41;68.64
16580;BME280;8402;51.466;6.806;2023-08-31T09:14:13;100752.06;;;22.51;69.10
16580;BME280;8402;51.466;6.806;2023-08-31T09:16:44;100751.25;;;22.61;69.23
16580;BME280;8402;51.466;6.806;2023-08-31T09:19:19;100761.94;;;22.66;68.56
16580;BME280;8402;51.466;6.806;2023-08-31T09:21:50;100759.94;;;22.77;70.40
16580;BME280;8402;51.466;6.806;2023-08-31T09:24:20;100757.56;;;22.83;69.47
16580;BME280;8402;51.466;6.806;2023-08-31T09:26:54;100757.19;;;22.81;67.61
16580;BME280;8402;51.466;6.806;2023-08-31T09:29:24;100752.03;;;23.01;69.01
16580;BME280;8402;51.466;6.806;2023-08-31T09:31:57;100757.91;;;23.21;68.14
16580;BME280;8402;51.466;6.806;2023-08-31T09:34:33;100759.44;;;23.43;68.02
16580;BME280;8402;51.466;6.806;2023-08-31T09:37:06;100753.44;;;23.59;68.01
16580;BME280;8402;51.466;6.806;2023-08-31T09:39:39;100754.63;;;23.58;66.93
16580;BME280;8402;51.466;6.806;2023-08-31T09:42:11;100757.41;;;23.65;66.61
16580;BME280;8402;51.466;6.806;2023-08-31T09:44:43;100756.59;;;23.68;66.31
16580;BME280;8402;51.466;6.806;2023-08-31T09:47:14;100753.44;;;23.66;63.88
16580;BME280;8402;51.466;6.806;2023-08-31T09:49:44;100757.00;;;23.63;64.78
16580;BME280;8402;51.466;6.806;2023-08-31T09:52:16;100754.19;;;23.70;64.71
16580;BME280;8402;51.466;6.806;2023-08-31T09:54:47;100749.34;;;23.88;65.90
16580;BME280;8402;51.466;6.806;2023-08-31T09:57:22;100757.97;;;24.05;63.51
16580;BME280;8402;51.466;6.806;2023-08-31T10:00:12;100760.47;;;23.81;63.66
16580;BME280;8402;51.466;6.806;2023-08-31T10:02:44;100762.94;;;23.65;63.85
16580;BME280;8402;51.466;6.806;2023-08-31T10:05:15;100762.13;;;23.65;63.50
16580;BME280;8402;51.466;6.806;2023-08-31T10:07:45;100766.06;;;23.74;63.19
16580;BME280;8402;51.466;6.806;2023-08-31T10:10:16;100760.78;;;23.98;64.14
16580;BME280;8402;51.466;6.806;2023-08-31T10:12:49;100764.28;;;24.09;62.65
16580;BME280;8402;51.466;6.806;2023-08-31T10:15:20;100766.34;;;23.91;62.14
16580;BME280;8402;51.466;6.806;2023-08-31T10:17:50;100764.50;;;23.66;60.14
16580;BME280;8402;51.466;6.806;2023-08-31T10:20:20;100763.31;;;23.56;62.44
16580;BME280;8402;51.466;6.806;2023-08-31T10:22:50;100759.78;;;23.52;61.59
16580;BME280;8402;51.466;6.806;2023-08-31T10:25:20;100764.59;;;23.38;61.33
16580;BME280;8402;51.466;6.806;2023-08-31T10:27:52;100771.75;;;23.24;60.51
16580;BME280;8402;51.466;6.806;2023-08-31T10:30:26;100768.66;;;22.90;58.55
16580;BME280;8402;51.466;6.806;2023-08-31T10:33:19;100769.41;;;22.76;59.99
16580;BME280;8402;51.466;6.806;2023-08-31T10:35:51;100772.59;;;22.93;62.46
16580;BME280;8402;51.466;6.806;2023-08-31T10:38:26;100763.50;;;22.92;61.06
16580;BME280;8402;51.466;6.806;2023-08-31T10:41:21;100765.06;;;23.15;62.10
16580;BME280;8402;51.466;6.806;2023-08-31T10:43:56;100764.25;;;23.14;61.08
16580;BME280;8402;51.466;6.806;2023-08-31T10:46:31;100759.53;;;23.08;61.55
16580;BME280;8402;51.466;6.806;2023-08-31T10:49:12;100748.47;;;23.04;61.93
16580;BME280;8402;51.466;6.806;2023-08-31T10:51:44;100760.72;;;23.03;62.85
16580;BME280;8402;51.466;6.806;2023-08-31T10:54:20;100748.84;;;23.17;62.14
16580;BME280;8402;51.466;6.806;2023-08-31T10:57:01;100758.31;;;23.19;61.64
16580;BME280;8402;51.466;6.806;2023-08-31T10:59:46;100759.94;;;22.99;59.78
16580;BME280;8402;51.466;6.806;2023-08-31T11:02:44;100763.44;;;23.24;60.91
16580;BME280;8402;51.466;6.806;2023-08-31T11:05:15;100750.28;;;23.50;60.77
16580;BME280;8402;51.466;6.806;2023-08-31T11:07:49;100748.69;;;23.63;60.73
16580;BME280;8402;51.466;6.806;2023-08-31T11:10:21;100743.16;;;23.59;60.62
16580;BME280;8402;51.466;6.806;2023-08-31T11:12:56;100751.09;;;23.47;59.65
16580;BME280;8402;51.466;6.806;2023-08-31T11:15:29;100761.47;;;23.21;57.47
16580;BME280;8402;51.466;6.806;2023-08-31T11:17:59;100755.19;;;23.10;59.64
16580;BME280;8402;51.466;6.806;2023-08-31T11:20:31;100745.69;;;23.11;60.69
16580;BME280;8402;51.466;6.806;2023-08-31T11:23:01;100741.75;;;23.05;60.44
16580;BME280;8402;51.466;6.806;2023-08-31T11:25:32;100752.78;;;23.12;60.29
16580;BME280;8402;51.466;6.806;2023-08-31T11:28:03;100737.72;;;23.31;60.57
16580;BME280;8402;51.466;6.806;2023-08-31T11:30:38;100739.19;;;23.57;60.51
16580;BME280;8402;51.466;6.806;2023-08-31T11:33:10;100732.81;;;23.71;59.74
16580;BME280;8402;51.466;6.806;2023-08-31T11:35:43;100732.81;;;23.74;57.56
16580;BME280;8402;51.466;6.806;2023-08-31T11:38:16;100728.84;;;23.75;56.70
16580;BME280;8402;51.466;6.806;2023-08-31T11:40:46;100730.78;;;23.82;58.27
16580;BME280;8402;51.466;6.806;2023-08-31T11:43:19;100727.22;;;23.81;58.50
16580;BME280;8402;51.466;6.806;2023-08-31T11:45:52;100723.31;;;23.75;56.80
16580;BME280;8402;51.466;6.806;2023-08-31T11:48:27;100728.88;;;23.68;56.48
16580;BME280;8402;51.466;6.806;2023-08-31T11:50:58;100724.88;;;23.80;56.19
16580;BME280;8402;51.466;6.806;2023-08-31T11:53:28;100717.31;;;23.87;57.12
16580;BME280;8402;51.466;6.806;2023-08-31T11:56:01;100713.66;;;23.98;56.13
16580;BME280;8402;51.466;6.806;2023-08-31T11:58:32;100704.94;;;24.03;55.91
16580;BME280;8402;51.466;6.806;2023-08-31T12:01:04;100713.94;;;24.17;56.21
16580;BME280;8402;51.466;6.806;2023-08-31T12:03:42;100709.28;;;24.04;56.29
16580;BME280;8402;51.466;6.806;2023-08-31T12:06:17;100703.63;;;24.14;56.19
16580;BME280;8402;51.466;6.806;2023-08-31T12:08:48;100718.69;;;24.17;55.68
16580;BME280;8402;51.466;6.806;2023-08-31T12:11:19;100719.06;;;24.19;56.01
16580;BME280;8402;51.466;6.806;2023-08-31T12:13:50;100718.22;;;24.26;55.95
16580;BME280;8402;51.466;6.806;2023-08-31T12:16:22;100720.56;;;24.27;56.08
16580;BME280;8402;51.466;6.806;2023-08-31T12:18:58;100723.75;;;24.29;55.46
16580;BME280;8402;51.466;6.806;2023-08-31T12:21:28;100726.09;;;24.34;55.78
16580;BME280;8402;51.466;6.806;2023-08-31T12:23:59;100736.00;;;24.28;55.93
16580;BME280;8402;51.466;6.806;2023-08-31T12:26:30;100735.31;;;24.13;55.36
16580;BME280;8402;51.466;6.806;2023-08-31T12:29:00;100731.34;;;24.18;56.37
16580;BME280;8402;51.466;6.806;2023-08-31T12:31:34;100735.63;;;24.26;56.99
16580;BME280;8402;51.466;6.806;2023-08-31T12:34:04;100736.84;;;24.25;56.38
16580;BME280;8402;51.466;6.806;2023-08-31T12:36:34;100726.13;;;24.27;56.60
16580;BME280;8402;51.466;6.806;2023-08-31T12:39:05;100728.56;;;24.18;55.85
16580;BME280;8402;51.466;6.806;2023-08-31T12:41:36;100722.97;;;24.25;55.52
16580;BME280;8402;51.466;6.806;2023-08-31T12:44:07;100722.88;;;24.39;56.65
16580;BME280;8402;51.466;6.806;2023-08-31T12:46:40;100723.59;;;24.51;55.25
16580;BME280;8402;51.466;6.806;2023-08-31T12:49:10;100729.53;;;24.53;54.86
16580;BME280;8402;51.466;6.806;2023-08-31T12:51:40;100727.59;;;24.42;55.75
16580;BME280;8402;51.466;6.806;2023-08-31T12:54:09;100722.88;;;24.39;55.46
16580;BME280;8402;51.466;6.806;2023-08-31T12:56:40;100730.31;;;24.53;55.20
16580;BME280;8402;51.466;6.806;2023-08-31T12:59:10;100736.28;;;24.48;53.91
16580;BME280;8402;51.466;6.806;2023-08-31T13:01:43;100733.94;;;24.47;53.38
16580;BME280;8402;51.466;6.806;2023-08-31T13:04:13;100734.81;;;24.36;53.36
16580;BME280;8402;51.466;6.806;2023-08-31T13:06:43;100730.00;;;24.40;54.36
16580;BME280;8402;51.466;6.806;2023-08-31T13:09:13;100738.31;;;24.44;54.12
16580;BME280;8402;51.466;6.806;2023-08-31T13:11:43;100740.34;;;24.36;53.27
16580;BME280;8402;51.466;6.806;2023-08-31T13:14:13;100736.38;;;24.37;53.99
16580;BME280;8402;51.466;6.806;2023-08-31T13:16:45;100722.47;;;24.45;53.39
16580;BME280;8402;51.466;6.806;2023-08-31T13:19:16;100738.63;;;24.50;53.71
16580;BME280;8402;51.466;6.806;2023-08-31T13:21:46;100725.19;;;24.52;52.99